sensor_id;sensor_type;location;lat;lon;timestamp;P1;durP1;ratioP1;P2;durP2;ratioP2
18168;SDS011;49877;50.398;30.324;2022-09-19T00:01:18;1.80;;;1.07;;
18168;SDS011;49877;50.398;30.324;2022-09-19T00:03:53;1.10;;;1.00;;
18168;SDS011;49877;50.398;30.324;2022-09-19T00:06:22;1.10;;;1.10;;
18168;SDS011;49877;50.398;30.324;2022-09-19T00:08:51;3.80;;;1.13;;
18168;SDS011;49877;50.398;30.324;2022-09-19T00:11:20;1.00;;;1.00;;
18168;SDS011;49877;50.398;30.324;2022-09-19T00:13:48;1.17;;;1.00;;
18168;SDS011;49877;50.398;30.324;2022-09-19T00:16:17;1.00;;;1.00;;
18168;SDS011;49877;50.398;30.324;2022-09-19T00:18:45;1.80;;;1.00;;
18168;SDS011;49877;50.398;30.324;2022-09-19T00:21:18;1.00;;;1.00;;
18168;SDS011;49877;50.398;30.324;2022-09-19T00:23:45;1.00;;;1.00;;
18168;SDS011;49877;50.398;30.324;2022-09-19T00:26:30;1.40;;;1.00;;
18168;SDS011;49877;50.398;30.324;2022-09-19T00:28:57;1.70;;;1.10;;
18168;SDS011;49877;50.398;30.324;2022-09-19T00:31:24;1.00;;;1.00;;
18168;SDS011;49877;50.398;30.324;2022-09-19T00:33:52;1.57;;;1.10;;
18168;SDS011;49877;50.398;30.324;2022-09-19T00:36:20;1.10;;;1.10;;
18168;SDS011;49877;50.398;30.324;2022-09-19T00:38:47;1.30;;;1.20;;
18168;SDS011;49877;50.398;30.324;2022-09-19T00:41:15;1.50;;;1.20;;
18168;SDS011;49877;50.398;30.324;2022-09-19T00:43:47;1.23;;;1.20;;
18168;SDS011;49877;50.398;30.324;2022-09-19T00:46:16;1.40;;;1.30;;
18168;SDS011;49877;50.398;30.324;2022-09-19T00:48:44;1.50;;;1.40;;
18168;SDS011;49877;50.398;30.324;2022-09-19T00:51:17;1.50;;;1.40;;
18168;SDS011;49877;50.398;30.324;2022-09-19T00:53:48;1.70;;;1.60;;
18168;SDS011;49877;50.398;30.324;2022-09-19T00:56:17;1.93;;;1.67;;
18168;SDS011;49877;50.398;30.324;2022-09-19T00:58:44;2.93;;;1.80;;
18168;SDS011;49877;50.398;30.324;2022-09-19T01:01:13;2.07;;;1.80;;
18168;SDS011;49877;50.398;30.324;2022-09-19T01:03:41;2.60;;;1.90;;
18168;SDS011;49877;50.398;30.324;2022-09-19T01:06:14;3.20;;;2.13;;
18168;SDS011;49877;50.398;30.324;2022-09-19T01:08:54;2.80;;;1.90;;
18168;SDS011;49877;50.398;30.324;2022-09-19T01:11:36;2.00;;;1.90;;
18168;SDS011;49877;50.398;30.324;2022-09-19T01:14:23;4.40;;;2.30;;
18168;SDS011;49877;50.398;30.324;2022-09-19T01:17:03;4.93;;;2.03;;
18168;SDS011;49877;50.398;30.324;2022-09-19T01:19:46;2.63;;;2.30;;
18168;SDS011;49877;50.398;30.324;2022-09-19T01:22:37;5.07;;;2.50;;
18168;SDS011;49877;50.398;30.324;2022-09-19T01:25:22;2.90;;;2.60;;
18168;SDS011;49877;50.398;30.324;2022-09-19T01:28:03;3.43;;;2.60;;
18168;SDS011;49877;50.398;30.324;2022-09-19T01:30:37;3.70;;;2.50;;
18168;SDS011;49877;50.398;30.324;2022-09-19T01:33:09;2.70;;;2.50;;
18168;SDS011;49877;50.398;30.324;2022-09-19T01:35:42;2.80;;;2.60;;
18168;SDS011;49877;50.398;30.324;2022-09-19T01:38:11;5.70;;;3.13;;
18168;SDS011;49877;50.398;30.324;2022-09-19T01:40:42;3.73;;;3.20;;
18168;SDS011;49877;50.398;30.324;2022-09-19T01:43:13;4.47;;;3.17;;
18168;SDS011;49877;50.398;30.324;2022-09-19T01:45:41;3.83;;;3.10;;
18168;SDS011;49877;50.398;30.324;2022-09-19T01:48:12;3.77;;;3.37;;
18168;SDS011;49877;50.398;30.324;2022-09-19T01:50:58;4.07;;;3.10;;
18168;SDS011;49877;50.398;30.324;2022-09-19T01:53:39;4.67;;;3.23;;
18168;SDS011;49877;50.398;30.324;2022-09-19T01:56:28;4.43;;;3.27;;
18168;SDS011;49877;50.398;30.324;2022-09-19T01:59:08;2.40;;;2.20;;
18168;SDS011;49877;50.398;30.324;2022-09-19T02:01:46;2.20;;;2.00;;
18168;SDS011;49877;50.398;30.324;2022-09-19T02:04:17;1.90;;;1.80;;
18168;SDS011;49877;50.398;30.324;2022-09-19T02:06:48;1.87;;;1.50;;
18168;SDS011;49877;50.398;30.324;2022-09-19T02:09:20;1.87;;;1.67;;
18168;SDS011;49877;50.398;30.324;2022-09-19T02:11:51;3.63;;;2.10;;
18168;SDS011;49877;50.398;30.324;2022-09-19T02:14:22;2.77;;;2.20;;
18168;SDS011;49877;50.398;30.324;2022-09-19T02:16:53;2.90;;;2.33;;
18168;SDS011;49877;50.398;30.324;2022-09-19T02:19:29;2.60;;;2.40;;
18168;SDS011;49877;50.398;30.324;2022-09-19T02:21:59;4.43;;;2.80;;
18168;SDS011;49877;50.398;30.324;2022-09-19T02:24:31;3.50;;;2.33;;
18168;SDS011;49877;50.398;30.324;2022-09-19T02:27:02;2.73;;;2.20;;
18168;SDS011;49877;50.398;30.324;2022-09-19T02:29:34;3.67;;;2.60;;
18168;SDS011;49877;50.398;30.324;2022-09-19T02:32:04;2.77;;;2.40;;
18168;SDS011;49877;50.398;30.324;2022-09-19T02:34:32;3.27;;;2.60;;
18168;SDS011;49877;50.398;30.324;2022-09-19T02:37:01;3.00;;;2.70;;
18168;SDS011;49877;50.398;30.324;2022-09-19T02:39:30;3.90;;;2.80;;
18168;SDS011;49877;50.398;30.324;2022-09-19T02:42:02;3.10;;;2.80;;
18168;SDS011;49877;50.398;30.324;2022-09-19T02:44:37;3.63;;;3.10;;
18168;SDS011;49877;50.398;30.324;2022-09-19T02:47:15;3.33;;;3.03;;
18168;SDS011;49877;50.398;30.324;2022-09-19T02:49:47;3.50;;;3.20;;
18168;SDS011;49877;50.398;30.324;2022-09-19T02:52:18;3.67;;;3.30;;
18168;SDS011;49877;50.398;30.324;2022-09-19T02:54:51;4.10;;;3.60;;
18168;SDS011;49877;50.398;30.324;2022-09-19T02:57:21;5.40;;;3.80;;
18168;SDS011;49877;50.398;30.324;2022-09-19T02:59:52;5.53;;;3.87;;
18168;SDS011;49877;50.398;30.324;2022-09-19T03:02:24;6.53;;;4.00;;
18168;SDS011;49877;50.398;30.324;2022-09-19T03:04:54;4.63;;;3.97;;
18168;SDS011;49877;50.398;30.324;2022-09-19T03:07:24;5.27;;;4.23;;
18168;SDS011;49877;50.398;30.324;2022-09-19T03:09:56;5.07;;;4.10;;
18168;SDS011;49877;50.398;30.324;2022-09-19T03:12:29;4.73;;;3.53;;
18168;SDS011;49877;50.398;30.324;2022-09-19T03:15:05;5.80;;;4.27;;
18168;SDS011;49877;50.398;30.324;2022-09-19T03:17:35;5.20;;;4.10;;
18168;SDS011;49877;50.398;30.324;2022-09-19T03:20:06;4.60;;;4.03;;
18168;SDS011;49877;50.398;30.324;2022-09-19T03:22:36;5.93;;;4.10;;
18168;SDS011;49877;50.398;30.324;2022-09-19T03:25:04;5.90;;;4.17;;
18168;SDS011;49877;50.398;30.324;2022-09-19T03:27:32;7.20;;;3.97;;
18168;SDS011;49877;50.398;30.324;2022-09-19T03:30:04;6.33;;;4.17;;
18168;SDS011;49877;50.398;30.324;2022-09-19T03:32:32;6.63;;;4.37;;
18168;SDS011;49877;50.398;30.324;2022-09-19T03:35:00;5.80;;;4.30;;
18168;SDS011;49877;50.398;30.324;2022-09-19T03:37:28;7.50;;;4.47;;
18168;SDS011;49877;50.398;30.324;2022-09-19T03:39:54;4.83;;;4.27;;
18168;SDS011;49877;50.398;30.324;2022-09-19T03:42:22;5.23;;;4.10;;
18168;SDS011;49877;50.398;30.324;2022-09-19T03:44:49;4.50;;;3.83;;
18168;SDS011;49877;50.398;30.324;2022-09-19T03:47:18;5.80;;;4.10;;
18168;SDS011;49877;50.398;30.324;2022-09-19T03:49:46;6.43;;;3.77;;
18168;SDS011;49877;50.398;30.324;2022-09-19T03:52:14;5.27;;;3.93;;
18168;SDS011;49877;50.398;30.324;2022-09-19T03:54:42;6.17;;;4.00;;
18168;SDS011;49877;50.398;30.324;2022-09-19T03:57:09;4.50;;;3.93;;
18168;SDS011;49877;50.398;30.324;2022-09-19T03:59:36;6.57;;;3.80;;
18168;SDS011;49877;50.398;30.324;2022-09-19T04:02:05;5.17;;;4.03;;
18168;SDS011;49877;50.398;30.324;2022-09-19T04:04:33;4.73;;;4.20;;
18168;SDS011;49877;50.398;30.324;2022-09-19T04:07:00;5.07;;;3.80;;
18168;SDS011;49877;50.398;30.324;2022-09-19T04:09:27;4.77;;;3.87;;
18168;SDS011;49877;50.398;30.324;2022-09-19T04:11:54;7.83;;;4.53;;
18168;SDS011;49877;50.398;30.324;2022-09-19T04:14:21;5.77;;;4.23;;
18168;SDS011;49877;50.398;30.324;2022-09-19T04:16:49;6.20;;;4.00;;
18168;SDS011;49877;50.398;30.324;2022-09-19T04:19:16;5.60;;;4.17;;
18168;SDS011;49877;50.398;30.324;2022-09-19T04:21:44;6.83;;;4.10;;
18168;SDS011;49877;50.398;30.324;2022-09-19T04:24:12;6.47;;;5.00;;
18168;SDS011;49877;50.398;30.324;2022-09-19T04:26:40;7.03;;;4.47;;
18168;SDS011;49877;50.398;30.324;2022-09-19T04:29:08;5.83;;;4.20;;
18168;SDS011;49877;50.398;30.324;2022-09-19T04:31:36;4.20;;;3.77;;
18168;SDS011;49877;50.398;30.324;2022-09-19T04:34:04;5.20;;;4.20;;
18168;SDS011;49877;50.398;30.324;2022-09-19T04:36:31;4.50;;;4.10;;
18168;SDS011;49877;50.398;30.324;2022-09-19T04:39:00;6.97;;;4.00;;
18168;SDS011;49877;50.398;30.324;2022-09-19T04:41:29;5.43;;;4.10;;
18168;SDS011;49877;50.398;30.324;2022-09-19T04:43:57;5.13;;;4.30;;
18168;SDS011;49877;50.398;30.324;2022-09-19T04:46:24;5.13;;;4.00;;
18168;SDS011;49877;50.398;30.324;2022-09-19T04:48:51;5.40;;;4.10;;
18168;SDS011;49877;50.398;30.324;2022-09-19T04:51:19;6.00;;;4.30;;
18168;SDS011;49877;50.398;30.324;2022-09-19T04:53:46;6.07;;;4.00;;
18168;SDS011;49877;50.398;30.324;2022-09-19T04:56:15;4.77;;;4.07;;
18168;SDS011;49877;50.398;30.324;2022-09-19T04:58:42;4.47;;;3.93;;
18168;SDS011;49877;50.398;30.324;2022-09-19T05:01:09;4.60;;;4.10;;
18168;SDS011;49877;50.398;30.324;2022-09-19T05:03:38;4.50;;;3.73;;
18168;SDS011;49877;50.398;30.324;2022-09-19T05:06:08;4.37;;;3.90;;
18168;SDS011;49877;50.398;30.324;2022-09-19T05:08:35;5.23;;;4.00;;
18168;SDS011;49877;50.398;30.324;2022-09-19T05:11:04;6.27;;;4.00;;
18168;SDS011;49877;50.398;30.324;2022-09-19T05:13:34;4.70;;;4.03;;
18168;SDS011;49877;50.398;30.324;2022-09-19T05:16:04;5.10;;;4.17;;
18168;SDS011;49877;50.398;30.324;2022-09-19T05:18:32;5.20;;;4.30;;
18168;SDS011;49877;50.398;30.324;2022-09-19T05:21:03;5.43;;;4.10;;
18168;SDS011;49877;50.398;30.324;2022-09-19T05:23:32;6.30;;;4.40;;
18168;SDS011;49877;50.398;30.324;2022-09-19T05:26:02;6.07;;;4.47;;
18168;SDS011;49877;50.398;30.324;2022-09-19T05:28:30;6.43;;;4.53;;
18168;SDS011;49877;50.398;30.324;2022-09-19T05:30:59;5.00;;;4.03;;
18168;SDS011;49877;50.398;30.324;2022-09-19T05:33:30;4.87;;;4.30;;
18168;SDS011;49877;50.398;30.324;2022-09-19T05:35:58;6.40;;;4.77;;
18168;SDS011;49877;50.398;30.324;2022-09-19T05:38:26;7.13;;;4.90;;
18168;SDS011;49877;50.398;30.324;2022-09-19T05:40:54;5.20;;;4.60;;
18168;SDS011;49877;50.398;30.324;2022-09-19T05:43:22;6.50;;;4.40;;
18168;SDS011;49877;50.398;30.324;2022-09-19T05:45:49;6.97;;;5.10;;
18168;SDS011;49877;50.398;30.324;2022-09-19T05:48:18;6.50;;;4.47;;
18168;SDS011;49877;50.398;30.324;2022-09-19T05:50:46;7.67;;;5.10;;
18168;SDS011;49877;50.398;30.324;2022-09-19T05:53:14;5.97;;;5.00;;
18168;SDS011;49877;50.398;30.324;2022-09-19T05:56:00;5.50;;;4.90;;
18168;SDS011;49877;50.398;30.324;2022-09-19T05:58:29;6.83;;;4.87;;
18168;SDS011;49877;50.398;30.324;2022-09-19T06:00:56;6.67;;;5.03;;
18168;SDS011;49877;50.398;30.324;2022-09-19T06:03:29;5.93;;;4.57;;
18168;SDS011;49877;50.398;30.324;2022-09-19T06:05:57;7.43;;;5.77;;
18168;SDS011;49877;50.398;30.324;2022-09-19T06:08:24;6.27;;;4.70;;
18168;SDS011;49877;50.398;30.324;2022-09-19T06:10:51;5.93;;;4.67;;
18168;SDS011;49877;50.398;30.324;2022-09-19T06:13:19;6.73;;;5.60;;
18168;SDS011;49877;50.398;30.324;2022-09-19T06:15:47;5.37;;;4.57;;
18168;SDS011;49877;50.398;30.324;2022-09-19T06:18:15;5.60;;;4.43;;
18168;SDS011;49877;50.398;30.324;2022-09-19T06:20:43;5.90;;;4.73;;
18168;SDS011;49877;50.398;30.324;2022-09-19T06:23:11;6.90;;;4.53;;
18168;SDS011;49877;50.398;30.324;2022-09-19T06:25:38;6.73;;;4.60;;
18168;SDS011;49877;50.398;30.324;2022-09-19T06:28:06;6.47;;;4.37;;
18168;SDS011;49877;50.398;30.324;2022-09-19T06:30:35;5.50;;;4.30;;
18168;SDS011;49877;50.398;30.324;2022-09-19T06:33:04;7.40;;;4.17;;
18168;SDS011;49877;50.398;30.324;2022-09-19T06:35:31;4.60;;;4.00;;
18168;SDS011;49877;50.398;30.324;2022-09-19T06:38:00;4.77;;;3.70;;
18168;SDS011;49877;50.398;30.324;2022-09-19T06:40:30;4.80;;;3.83;;
18168;SDS011;49877;50.398;30.324;2022-09-19T06:42:57;5.40;;;3.83;;
18168;SDS011;49877;50.398;30.324;2022-09-19T06:45:26;7.63;;;3.70;;
18168;SDS011;49877;50.398;30.324;2022-09-19T06:47:55;4.20;;;3.13;;
18168;SDS011;49877;50.398;30.324;2022-09-19T06:50:23;4.10;;;3.70;;
18168;SDS011;49877;50.398;30.324;2022-09-19T06:52:51;4.00;;;3.57;;
18168;SDS011;49877;50.398;30.324;2022-09-19T06:55:19;3.93;;;3.23;;
18168;SDS011;49877;50.398;30.324;2022-09-19T06:57:52;4.33;;;3.53;;
18168;SDS011;49877;50.398;30.324;2022-09-19T07:00:21;5.67;;;3.30;;
18168;SDS011;49877;50.398;30.324;2022-09-19T07:02:50;4.97;;;3.70;;
18168;SDS011;49877;50.398;30.324;2022-09-19T07:05:19;4.50;;;3.47;;
18168;SDS011;49877;50.398;30.324;2022-09-19T07:07:46;4.17;;;3.30;;
18168;SDS011;49877;50.398;30.324;2022-09-19T07:10:16;3.43;;;3.07;;
18168;SDS011;49877;50.398;30.324;2022-09-19T07:12:49;4.50;;;3.07;;
18168;SDS011;49877;50.398;30.324;2022-09-19T07:15:17;4.03;;;3.07;;
18168;SDS011;49877;50.398;30.324;2022-09-19T07:17:45;4.97;;;3.10;;
18168;SDS011;49877;50.398;30.324;2022-09-19T07:20:12;3.90;;;3.10;;
18168;SDS011;49877;50.398;30.324;2022-09-19T07:22:39;4.07;;;3.10;;
18168;SDS011;49877;50.398;30.324;2022-09-19T07:25:06;3.37;;;3.00;;
18168;SDS011;49877;50.398;30.324;2022-09-19T07:27:35;4.00;;;3.10;;
18168;SDS011;49877;50.398;30.324;2022-09-19T07:30:03;4.20;;;3.07;;
18168;SDS011;49877;50.398;30.324;2022-09-19T07:32:31;4.23;;;3.00;;
18168;SDS011;49877;50.398;30.324;2022-09-19T07:34:58;6.20;;;3.30;;
18168;SDS011;49877;50.398;30.324;2022-09-19T07:37:25;3.67;;;3.23;;
18168;SDS011;49877;50.398;30.324;2022-09-19T07:39:52;6.40;;;3.57;;
18168;SDS011;49877;50.398;30.324;2022-09-19T07:42:19;3.70;;;3.30;;
18168;SDS011;49877;50.398;30.324;2022-09-19T07:44:47;4.73;;;3.00;;
18168;SDS011;49877;50.398;30.324;2022-09-19T07:47:14;6.10;;;3.40;;
18168;SDS011;49877;50.398;30.324;2022-09-19T07:49:53;4.80;;;3.40;;
18168;SDS011;49877;50.398;30.324;2022-09-19T07:52:20;4.87;;;3.50;;
18168;SDS011;49877;50.398;30.324;2022-09-19T07:54:47;7.77;;;3.93;;
18168;SDS011;49877;50.398;30.324;2022-09-19T07:57:14;6.13;;;3.33;;
18168;SDS011;49877;50.398;30.324;2022-09-19T07:59:41;5.33;;;3.30;;
18168;SDS011;49877;50.398;30.324;2022-09-19T08:02:11;4.97;;;3.67;;
18168;SDS011;49877;50.398;30.324;2022-09-19T08:04:38;6.47;;;4.17;;
18168;SDS011;49877;50.398;30.324;2022-09-19T08:07:05;4.90;;;3.83;;
18168;SDS011;49877;50.398;30.324;2022-09-19T08:09:32;6.73;;;3.80;;
18168;SDS011;49877;50.398;30.324;2022-09-19T08:12:00;7.80;;;4.10;;
18168;SDS011;49877;50.398;30.324;2022-09-19T08:14:27;5.17;;;3.97;;
18168;SDS011;49877;50.398;30.324;2022-09-19T08:16:54;6.10;;;4.07;;
18168;SDS011;49877;50.398;30.324;2022-09-19T08:19:22;7.83;;;4.03;;
18168;SDS011;49877;50.398;30.324;2022-09-19T08:21:49;6.47;;;4.30;;
18168;SDS011;49877;50.398;30.324;2022-09-19T08:24:16;5.97;;;3.73;;
18168;SDS011;49877;50.398;30.324;2022-09-19T08:26:43;5.50;;;3.90;;
18168;SDS011;49877;50.398;30.324;2022-09-19T08:29:10;6.80;;;4.07;;
18168;SDS011;49877;50.398;30.324;2022-09-19T08:31:38;5.90;;;3.87;;
18168;SDS011;49877;50.398;30.324;2022-09-19T08:34:05;6.63;;;4.07;;
18168;SDS011;49877;50.398;30.324;2022-09-19T08:36:35;6.50;;;3.77;;
18168;SDS011;49877;50.398;30.324;2022-09-19T08:39:04;8.90;;;3.93;;
18168;SDS011;49877;50.398;30.324;2022-09-19T08:41:35;5.97;;;3.90;;
18168;SDS011;49877;50.398;30.324;2022-09-19T08:44:11;6.47;;;4.03;;
18168;SDS011;49877;50.398;30.324;2022-09-19T08:46:48;5.27;;;3.50;;
18168;SDS011;49877;50.398;30.324;2022-09-19T08:49:20;6.70;;;3.80;;
18168;SDS011;49877;50.398;30.324;2022-09-19T08:51:55;5.60;;;3.80;;
18168;SDS011;49877;50.398;30.324;2022-09-19T08:54:27;5.43;;;3.77;;
18168;SDS011;49877;50.398;30.324;2022-09-19T08:56:57;7.50;;;3.57;;
18168;SDS011;49877;50.398;30.324;2022-09-19T08:59:27;5.13;;;3.50;;
18168;SDS011;49877;50.398;30.324;2022-09-19T09:01:59;6.57;;;3.40;;
18168;SDS011;49877;50.398;30.324;2022-09-19T09:04:33;8.30;;;5.80;;
18168;SDS011;49877;50.398;30.324;2022-09-19T09:07:08;9.10;;;5.43;;
18168;SDS011;49877;50.398;30.324;2022-09-19T09:09:57;9.10;;;5.27;;
18168;SDS011;49877;50.398;30.324;2022-09-19T09:12:34;8.57;;;4.80;;
18168;SDS011;49877;50.398;30.324;2022-09-19T09:15:13;7.97;;;4.60;;
18168;SDS011;49877;50.398;30.324;2022-09-19T09:17:49;9.00;;;4.70;;
18168;SDS011;49877;50.398;30.324;2022-09-19T09:20:31;9.60;;;5.10;;
18168;SDS011;49877;50.398;30.324;2022-09-19T09:23:10;8.40;;;4.60;;
18168;SDS011;49877;50.398;30.324;2022-09-19T09:25:43;8.07;;;4.70;;
18168;SDS011;49877;50.398;30.324;2022-09-19T09:28:13;7.13;;;3.80;;
18168;SDS011;49877;50.398;30.324;2022-09-19T09:30:46;6.93;;;4.60;;
18168;SDS011;49877;50.398;30.324;2022-09-19T09:33:16;5.83;;;4.23;;
18168;SDS011;49877;50.398;30.324;2022-09-19T09:35:48;7.37;;;4.37;;
18168;SDS011;49877;50.398;30.324;2022-09-19T09:38:26;6.90;;;4.03;;
18168;SDS011;49877;50.398;30.324;2022-09-19T09:40:57;5.60;;;4.27;;
18168;SDS011;49877;50.398;30.324;2022-09-19T09:43:47;5.70;;;3.60;;
18168;SDS011;49877;50.398;30.324;2022-09-19T09:46:26;5.00;;;3.67;;
18168;SDS011;49877;50.398;30.324;2022-09-19T09:49:08;8.87;;;3.80;;
18168;SDS011;49877;50.398;30.324;2022-09-19T09:51:39;5.43;;;3.60;;
18168;SDS011;49877;50.398;30.324;2022-09-19T09:54:22;8.93;;;3.80;;
18168;SDS011;49877;50.398;30.324;2022-09-19T09:57:17;6.53;;;3.17;;
18168;SDS011;49877;50.398;30.324;2022-09-19T09:59:55;6.17;;;3.37;;
18168;SDS011;49877;50.398;30.324;2022-09-19T10:02:46;6.47;;;3.30;;
18168;SDS011;49877;50.398;30.324;2022-09-19T10:05:37;5.77;;;2.90;;
18168;SDS011;49877;50.398;30.324;2022-09-19T10:08:13;5.60;;;2.80;;
18168;SDS011;49877;50.398;30.324;2022-09-19T10:10:46;6.80;;;3.10;;
18168;SDS011;49877;50.398;30.324;2022-09-19T10:13:21;3.63;;;2.60;;
18168;SDS011;49877;50.398;30.324;2022-09-19T10:15:51;6.73;;;3.20;;
18168;SDS011;49877;50.398;30.324;2022-09-19T10:18:27;4.57;;;2.90;;
18168;SDS011;49877;50.398;30.324;2022-09-19T10:21:02;3.47;;;2.87;;
18168;SDS011;49877;50.398;30.324;2022-09-19T10:23:30;9.53;;;4.10;;
18168;SDS011;49877;50.398;30.324;2022-09-19T10:26:00;6.30;;;2.70;;
18168;SDS011;49877;50.398;30.324;2022-09-19T10:28:31;5.80;;;2.97;;
18168;SDS011;49877;50.398;30.324;2022-09-19T10:31:02;7.77;;;3.50;;
18168;SDS011;49877;50.398;30.324;2022-09-19T10:33:35;6.53;;;2.93;;
18168;SDS011;49877;50.398;30.324;2022-09-19T10:36:06;5.10;;;2.97;;
18168;SDS011;49877;50.398;30.324;2022-09-19T10:38:48;4.10;;;2.70;;
18168;SDS011;49877;50.398;30.324;2022-09-19T10:41:21;6.53;;;3.00;;
18168;SDS011;49877;50.398;30.324;2022-09-19T10:43:51;9.57;;;3.20;;
18168;SDS011;49877;50.398;30.324;2022-09-19T10:46:19;4.20;;;2.90;;
18168;SDS011;49877;50.398;30.324;2022-09-19T10:48:49;5.60;;;3.17;;
18168;SDS011;49877;50.398;30.324;2022-09-19T10:51:19;4.57;;;2.80;;
18168;SDS011;49877;50.398;30.324;2022-09-19T10:53:47;5.13;;;2.70;;
18168;SDS011;49877;50.398;30.324;2022-09-19T10:56:22;4.57;;;3.20;;
18168;SDS011;49877;50.398;30.324;2022-09-19T10:58:54;7.27;;;3.00;;
18168;SDS011;49877;50.398;30.324;2022-09-19T11:01:27;5.57;;;2.80;;
18168;SDS011;49877;50.398;30.324;2022-09-19T11:03:57;5.63;;;3.03;;
18168;SDS011;49877;50.398;30.324;2022-09-19T11:06:30;7.33;;;3.13;;
18168;SDS011;49877;50.398;30.324;2022-09-19T11:08:59;6.20;;;3.00;;
18168;SDS011;49877;50.398;30.324;2022-09-19T11:11:34;6.97;;;2.60;;
18168;SDS011;49877;50.398;30.324;2022-09-19T11:14:14;4.97;;;2.53;;
18168;SDS011;49877;50.398;30.324;2022-09-19T11:20:03;7.47;;;3.60;;
18168;SDS011;49877;50.398;30.324;2022-09-19T11:23:03;5.40;;;2.90;;
18168;SDS011;49877;50.398;30.324;2022-09-19T11:25:41;5.90;;;2.53;;
18168;SDS011;49877;50.398;30.324;2022-09-19T11:28:21;8.53;;;2.63;;
18168;SDS011;49877;50.398;30.324;2022-09-19T11:31:02;7.23;;;2.60;;
18168;SDS011;49877;50.398;30.324;2022-09-19T11:33:38;6.33;;;2.67;;
18168;SDS011;49877;50.398;30.324;2022-09-19T11:36:14;8.70;;;2.80;;
18168;SDS011;49877;50.398;30.324;2022-09-19T11:38:53;6.43;;;2.63;;
18168;SDS011;49877;50.398;30.324;2022-09-19T11:41:28;6.73;;;2.60;;
18168;SDS011;49877;50.398;30.324;2022-09-19T11:47:14;4.67;;;2.27;;
18168;SDS011;49877;50.398;30.324;2022-09-19T11:50:06;7.67;;;2.30;;
18168;SDS011;49877;50.398;30.324;2022-09-19T11:53:00;4.53;;;2.80;;
18168;SDS011;49877;50.398;30.324;2022-09-19T11:55:37;4.20;;;2.47;;
18168;SDS011;49877;50.398;30.324;2022-09-19T11:58:12;8.33;;;2.53;;
18168;SDS011;49877;50.398;30.324;2022-09-19T12:00:50;4.53;;;2.10;;
18168;SDS011;49877;50.398;30.324;2022-09-19T12:03:28;7.57;;;2.33;;
18168;SDS011;49877;50.398;30.324;2022-09-19T12:06:14;4.63;;;2.50;;
18168;SDS011;49877;50.398;30.324;2022-09-19T12:08:54;5.13;;;2.27;;
18168;SDS011;49877;50.398;30.324;2022-09-19T12:11:31;5.40;;;2.23;;
18168;SDS011;49877;50.398;30.324;2022-09-19T12:14:08;6.60;;;2.37;;
18168;SDS011;49877;50.398;30.324;2022-09-19T12:16:42;3.90;;;2.17;;
18168;SDS011;49877;50.398;30.324;2022-09-19T12:19:13;7.73;;;2.20;;
18168;SDS011;49877;50.398;30.324;2022-09-19T12:21:44;4.30;;;2.03;;
18168;SDS011;49877;50.398;30.324;2022-09-19T12:24:17;3.37;;;1.80;;
18168;SDS011;49877;50.398;30.324;2022-09-19T12:27:06;4.43;;;2.00;;
18168;SDS011;49877;50.398;30.324;2022-09-19T12:29:39;4.83;;;2.07;;
18168;SDS011;49877;50.398;30.324;2022-09-19T12:32:16;6.43;;;1.93;;
18168;SDS011;49877;50.398;30.324;2022-09-19T12:34:49;5.70;;;1.87;;
18168;SDS011;49877;50.398;30.324;2022-09-19T12:37:22;3.20;;;1.93;;
18168;SDS011;49877;50.398;30.324;2022-09-19T12:39:57;5.33;;;2.00;;
18168;SDS011;49877;50.398;30.324;2022-09-19T12:42:31;4.00;;;1.90;;
18168;SDS011;49877;50.398;30.324;2022-09-19T12:45:09;5.30;;;1.90;;
18168;SDS011;49877;50.398;30.324;2022-09-19T12:47:47;4.00;;;2.10;;
18168;SDS011;49877;50.398;30.324;2022-09-19T12:50:31;4.27;;;2.00;;
18168;SDS011;49877;50.398;30.324;2022-09-19T12:53:06;4.40;;;2.03;;
18168;SDS011;49877;50.398;30.324;2022-09-19T12:55:44;3.53;;;2.10;;
18168;SDS011;49877;50.398;30.324;2022-09-19T12:58:23;4.27;;;1.70;;
18168;SDS011;49877;50.398;30.324;2022-09-19T13:00:54;6.23;;;1.80;;
18168;SDS011;49877;50.398;30.324;2022-09-19T13:03:35;2.70;;;1.73;;
18168;SDS011;49877;50.398;30.324;2022-09-19T13:06:09;3.73;;;1.60;;
18168;SDS011;49877;50.398;30.324;2022-09-19T13:08:40;2.97;;;1.90;;
18168;SDS011;49877;50.398;30.324;2022-09-19T13:11:13;5.17;;;2.10;;
18168;SDS011;49877;50.398;30.324;2022-09-19T13:13:46;4.97;;;1.83;;
18168;SDS011;49877;50.398;30.324;2022-09-19T13:16:18;4.47;;;1.80;;
18168;SDS011;49877;50.398;30.324;2022-09-19T13:18:50;6.53;;;2.00;;
18168;SDS011;49877;50.398;30.324;2022-09-19T13:21:38;4.50;;;1.90;;
18168;SDS011;49877;50.398;30.324;2022-09-19T13:24:25;3.80;;;1.80;;
18168;SDS011;49877;50.398;30.324;2022-09-19T13:26:55;4.93;;;1.90;;
18168;SDS011;49877;50.398;30.324;2022-09-19T13:32:25;3.43;;;1.70;;
18168;SDS011;49877;50.398;30.324;2022-09-19T13:35:01;3.23;;;1.97;;
18168;SDS011;49877;50.398;30.324;2022-09-19T13:37:47;8.87;;;1.90;;
18168;SDS011;49877;50.398;30.324;2022-09-19T13:40:26;6.00;;;2.20;;
18168;SDS011;49877;50.398;30.324;2022-09-19T13:43:04;3.53;;;2.00;;
18168;SDS011;49877;50.398;30.324;2022-09-19T13:45:54;4.87;;;2.27;;
18168;SDS011;49877;50.398;30.324;2022-09-19T13:48:29;3.93;;;1.83;;
18168;SDS011;49877;50.398;30.324;2022-09-19T13:51:03;5.03;;;2.63;;
18168;SDS011;49877;50.398;30.324;2022-09-19T13:53:36;6.73;;;2.70;;
18168;SDS011;49877;50.398;30.324;2022-09-19T13:56:19;5.23;;;2.70;;
18168;SDS011;49877;50.398;30.324;2022-09-19T13:58:51;6.00;;;1.97;;
18168;SDS011;49877;50.398;30.324;2022-09-19T14:01:38;3.07;;;1.90;;
18168;SDS011;49877;50.398;30.324;2022-09-19T14:04:10;3.23;;;1.90;;
18168;SDS011;49877;50.398;30.324;2022-09-19T14:07:16;3.23;;;1.87;;
18168;SDS011;49877;50.398;30.324;2022-09-19T14:09:46;5.30;;;2.13;;
18168;SDS011;49877;50.398;30.324;2022-09-19T14:18:29;4.00;;;1.80;;
18168;SDS011;49877;50.398;30.324;2022-09-19T14:24:31;3.23;;;1.90;;
18168;SDS011;49877;50.398;30.324;2022-09-19T14:27:12;4.57;;;1.80;;
18168;SDS011;49877;50.398;30.324;2022-09-19T14:29:59;4.20;;;2.63;;
18168;SDS011;49877;50.398;30.324;2022-09-19T14:32:33;4.73;;;1.87;;
18168;SDS011;49877;50.398;30.324;2022-09-19T14:38:19;7.33;;;2.40;;
18168;SDS011;49877;50.398;30.324;2022-09-19T14:41:02;5.17;;;2.50;;
18168;SDS011;49877;50.398;30.324;2022-09-19T14:46:39;5.70;;;3.20;;
18168;SDS011;49877;50.398;30.324;2022-09-19T14:49:12;3.80;;;2.20;;
18168;SDS011;49877;50.398;30.324;2022-09-19T14:51:48;2.73;;;1.80;;
18168;SDS011;49877;50.398;30.324;2022-09-19T14:54:22;4.53;;;1.90;;
18168;SDS011;49877;50.398;30.324;2022-09-19T14:56:58;2.80;;;1.83;;
18168;SDS011;49877;50.398;30.324;2022-09-19T14:59:29;2.57;;;1.93;;
18168;SDS011;49877;50.398;30.324;2022-09-19T15:02:05;3.53;;;1.77;;
18168;SDS011;49877;50.398;30.324;2022-09-19T15:04:38;5.97;;;2.33;;
18168;SDS011;49877;50.398;30.324;2022-09-19T15:07:07;4.77;;;2.37;;
18168;SDS011;49877;50.398;30.324;2022-09-19T15:09:36;3.23;;;2.20;;
18168;SDS011;49877;50.398;30.324;2022-09-19T15:12:10;3.87;;;2.20;;
18168;SDS011;49877;50.398;30.324;2022-09-19T15:14:45;3.63;;;1.93;;
18168;SDS011;49877;50.398;30.324;2022-09-19T15:17:14;3.67;;;2.00;;
18168;SDS011;49877;50.398;30.324;2022-09-19T15:19:45;4.43;;;1.93;;
18168;SDS011;49877;50.398;30.324;2022-09-19T15:22:23;7.27;;;2.70;;
18168;SDS011;49877;50.398;30.324;2022-09-19T15:24:53;7.40;;;3.30;;
18168;SDS011;49877;50.398;30.324;2022-09-19T15:27:24;5.60;;;2.77;;
18168;SDS011;49877;50.398;30.324;2022-09-19T15:29:52;4.83;;;2.57;;